Time;durP1;ratioP1;P1;durP2;ratioP2;P2;SDS_P1;SDS_P2;PMS_P1;PMS_P2;Temp;Humidity;BMP_temperature;BMP_pressure;BME280_temperature;BME280_humidity;BME280_pressure;Samples;Min_cycle;Max_cycle;Signal;HPM_P1;HPM_P2
2022/08/03 00:00:52;;;;;;;1.92;1.65;;;;;;;27.60;44.22;100708.73;1772581;79;20993;-80
2022/08/03 00:03:18;;;;;;;1.50;1.40;;;;;;;27.59;44.23;100702.33;1798623;79;21502;-80
2022/08/03 00:05:45;;;;;;;1.92;1.70;;;;;;;27.59;44.21;100702.33;1798855;79;21459;-80
2022/08/03 00:08:17;;;;;;;2.10;1.75;;;;;;;27.60;44.20;100708.73;1798919;79;21014;-80
2022/08/03 00:10:44;;;;;;;2.10;1.75;;;;;;;27.59;44.25;100709.31;1798619;79;21559;-80
2022/08/03 00:13:12;;;;;;;2.37;1.60;;;;;;;27.60;44.26;100705.94;1799002;79;21083;-80
2022/08/03 00:15:42;;;;;;;1.87;1.52;;;;;;;27.59;44.26;100709.91;1799034;79;21573;-80
2022/08/03 00:18:08;;;;;;;1.70;1.55;;;;;;;27.59;44.27;100709.91;1798953;79;21473;-80
2022/08/03 00:20:35;;;;;;;2.17;1.80;;;;;;;27.58;44.28;100705.52;1799028;79;21052;-81
2022/08/03 00:23:01;;;;;;;1.60;1.40;;;;;;;27.59;44.29;100709.91;1798762;79;21127;-81
2022/08/03 00:25:28;;;;;;;2.85;1.60;;;;;;;27.59;44.30;100709.91;1798632;79;21029;-81
2022/08/03 00:27:54;;;;;;;1.72;1.55;;;;;;;27.58;44.32;100711.88;1798993;79;20926;-80
2022/08/03 00:30:21;;;;;;;1.77;1.60;;;;;;;27.59;44.33;100711.30;1798917;79;20993;-80
2022/08/03 00:32:47;;;;;;;1.92;1.70;;;;;;;27.58;44.33;100717.47;1798629;79;21036;-81
2022/08/03 00:35:14;;;;;;;2.45;1.80;;;;;;;27.57;44.35;100710.29;1795921;79;21889;-81
2022/08/03 00:37:46;;;;;;;1.40;1.30;;;;;;;27.58;44.36;100718.09;1751027;80;20998;-80
2022/08/03 00:40:13;;;;;;;3.35;1.80;;;;;;;27.58;44.36;100723.06;1781255;79;21050;-80
2022/08/03 00:42:58;;;;;;;2.00;1.72;;;;;;;27.58;44.39;100719.48;1781214;79;21042;-80
2022/08/03 00:45:27;;;;;;;3.15;1.70;;;;;;;27.58;44.38;100720.27;1781341;80;21002;-81
2022/08/03 00:47:54;;;;;;;2.30;1.70;;;;;;;27.58;44.37;100719.48;1781489;80;21730;-81
2022/08/03 00:50:22;;;;;;;2.02;1.70;;;;;;;27.58;44.37;100720.88;1781360;79;21094;-81
2022/08/03 00:52:49;;;;;;;1.90;1.50;;;;;;;27.57;44.37;100724.84;1781271;79;21540;-81
2022/08/03 00:55:16;;;;;;;2.33;1.55;;;;;;;27.57;44.39;100720.08;1781363;79;21043;-81
2022/08/03 00:57:42;;;;;;;2.33;1.70;;;;;;;27.57;44.41;100727.64;1781703;79;21077;-81
2022/08/03 01:00:10;;;;;;;2.75;1.55;;;;;;;27.58;44.42;100724.46;1781242;80;21504;-81
2022/08/03 01:02:38;;;;;;;2.22;1.80;;;;;;;27.57;44.46;100729.85;1781642;79;21129;-78
2022/08/03 01:05:05;;;;;;;2.42;1.70;;;;;;;27.56;44.46;100724.03;1781601;80;20955;-80
2022/08/03 01:08:06;;;;;;;3.02;1.77;;;;;;;27.58;44.46;100726.48;1781362;80;21469;-80
2022/08/03 01:10:47;;;;;;;2.30;1.67;;;;;;;27.57;44.48;100729.04;1781520;80;21093;-80
2022/08/03 01:13:53;;;;;;;2.00;1.80;;;;;;;27.57;44.47;100724.84;1811984;78;22010;-81
2022/08/03 01:16:32;;;;;;;2.47;1.87;;;;;;;27.55;44.44;100721.02;1815232;78;21026;-80
2022/08/03 01:19:29;;;;;;;2.60;1.92;;;;;;;27.56;44.43;100720.42;1814886;78;21476;-81
2022/08/03 01:22:37;;;;;;;2.05;1.50;;;;;;;27.55;44.43;100718.22;1815369;78;21535;-80
2022/08/03 01:25:44;;;;;;;2.20;1.65;;;;;;;27.54;44.42;100716.59;1815036;79;21045;-80
2022/08/03 01:28:41;;;;;;;2.50;1.92;;;;;;;27.53;44.42;100717.79;1815269;79;21094;-80
2022/08/03 01:31:09;;;;;;;1.80;1.60;;;;;;;27.53;44.44;100719.77;1814996;78;21022;-81
2022/08/03 01:33:42;;;;;;;2.80;1.77;;;;;;;27.52;44.46;100725.13;1815217;79;21015;-80
2022/08/03 01:36:22;;;;;;;1.98;1.45;;;;;;;27.52;44.50;100722.34;1815269;79;21081;-80
2022/08/03 01:38:53;;;;;;;2.42;1.72;;;;;;;27.52;44.53;100723.73;1814352;78;21047;-81
2022/08/03 01:41:21;;;;;;;;;;;;;;;27.51;44.56;100720.72;1818024;78;21090;-81
2022/08/03 01:43:49;;;;;;;2.00;1.75;;;;;;;27.50;44.58;100714.31;1815054;77;20343;-81
2022/08/03 01:46:17;;;;;;;2.15;1.95;;;;;;;27.49;44.58;100712.72;1815047;78;20983;-80
2022/08/03 01:48:50;;;;;;;2.15;1.60;;;;;;;27.50;44.62;100717.11;1799342;78;21031;-81
2022/08/03 01:51:18;;;;;;;2.35;1.82;;;;;;;27.50;44.63;100717.69;1798220;79;21086;-81
2022/08/03 01:53:45;;;;;;;2.47;1.90;;;;;;;27.51;44.63;100715.13;1775435;79;21884;-80
2022/08/03 01:56:11;;;;;;;1.80;1.70;;;;;;;27.50;44.68;100714.31;1797845;79;21058;-80
2022/08/03 01:58:38;;;;;;;2.70;2.00;;;;;;;27.51;44.68;100713.14;1797912;79;20995;-80
2022/08/03 02:01:04;;;;;;;2.00;1.72;;;;;;;27.50;44.69;100715.71;1775668;79;21500;-80
2022/08/03 02:03:33;;;;;;;2.83;1.80;;;;;;;27.52;44.68;100715.35;1798131;79;21478;-80
2022/08/03 02:06:01;;;;;;;2.30;1.65;;;;;;;27.51;44.69;100717.92;1797755;79;21779;-80
2022/08/03 02:08:27;;;;;;;3.45;1.70;;;;;;;27.52;44.69;100715.35;1798128;79;21043;-80
2022/08/03 02:10:55;;;;;;;2.75;2.00;;;;;;;27.52;44.70;100712.56;1798393;79;21018;-80
2022/08/03 02:13:22;;;;;;;2.27;1.62;;;;;;;27.52;44.70;100704.17;1798282;79;21031;-81
2022/08/03 02:15:48;;;;;;;2.47;1.70;;;;;;;27.51;44.71;100703.36;1798168;79;21051;-81
2022/08/03 02:18:21;;;;;;;2.00;1.67;;;;;;;27.52;44.71;100704.98;1798142;79;21156;-81
2022/08/03 02:20:47;;;;;;;1.95;1.60;;;;;;;27.52;44.72;100699.98;1798269;79;21378;-81
2022/08/03 02:23:17;;;;;;;2.45;1.80;;;;;;;27.52;44.72;100706.39;1798218;79;21434;-80
2022/08/03 02:25:50;;;;;;;3.23;1.90;;;;;;;27.51;44.73;100704.77;1798597;79;21069;-80
2022/08/03 02:28:19;;;;;;;1.90;1.62;;;;;;;27.52;44.74;100704.98;1797146;79;21707;-81
2022/08/03 02:30:50;;;;;;;1.72;1.52;;;;;;;27.53;44.75;100712.20;1798318;79;21958;-80
2022/08/03 02:33:25;;;;;;;;;;;;;;;27.52;44.75;100706.97;1800091;79;21065;-81
2022/08/03 02:35:51;;;;;;;2.45;1.90;;;;;;;27.51;44.78;100702.55;1798110;79;20193;-81
2022/08/03 02:38:20;;;;;;;2.00;1.70;;;;;;;27.50;44.77;100701.73;1798320;79;21043;-81
2022/08/03 02:40:46;;;;;;;2.42;1.70;;;;;;;27.50;44.78;100700.92;1798445;79;22098;-81
2022/08/03 02:43:17;;;;;;;3.10;1.77;;;;;;;27.52;44.77;100706.97;1798152;78;21572;-81
2022/08/03 02:45:46;;;;;;;1.98;1.77;;;;;;;27.50;44.81;100708.72;1798418;79;21051;-80
2022/08/03 02:48:14;;;;;;;2.10;1.90;;;;;;;27.50;44.79;100712.91;1798537;79;21082;-81
2022/08/03 02:50:41;;;;;;;2.80;2.08;;;;;;;27.50;44.81;100707.33;1750928;79;21027;-80
2022/08/03 02:53:07;;;;;;;2.27;1.92;;;;;;;27.51;44.83;100717.34;1798329;79;21030;-81
2022/08/03 02:55:34;;;;;;;2.22;1.80;;;;;;;27.51;44.83;100718.73;1798426;79;21117;-80
2022/08/03 02:58:01;;;;;;;1.72;1.60;;;;;;;27.52;44.83;100715.35;1797960;79;21030;-80
2022/08/03 03:00:30;;;;;;;2.10;1.72;;;;;;;27.52;44.82;100719.55;1777852;79;21049;-81
2022/08/03 03:02:59;;;;;;;2.90;1.90;;;;;;;27.51;44.83;100712.33;1767514;80;21049;-80
2022/08/03 03:05:26;;;;;;;2.65;1.95;;;;;;;27.51;44.84;100715.13;1767098;81;21731;-80
2022/08/03 03:07:52;;;;;;;2.20;1.70;;;;;;;27.51;44.84;100712.33;1759905;81;21951;-81
2022/08/03 03:10:22;;;;;;;1.75;1.42;;;;;;;27.50;44.84;100715.71;1760095;81;21634;-80
2022/08/03 03:12:53;;;;;;;2.77;1.62;;;;;;;27.51;44.85;100721.53;1759746;81;21061;-81
2022/08/03 03:15:20;;;;;;;2.40;1.82;;;;;;;27.51;44.85;100720.72;1760098;80;20970;-81
2022/08/03 03:17:48;;;;;;;2.20;1.85;;;;;;;27.50;44.88;100716.30;1760206;81;21073;-81
2022/08/03 03:20:15;;;;;;;2.70;1.95;;;;;;;27.50;44.87;100724.09;1759765;81;21021;-80
2022/08/03 03:22:41;;;;;;;2.17;1.85;;;;;;;27.51;44.89;100726.30;1759880;80;21584;-80
2022/08/03 03:25:08;;;;;;;2.15;1.87;;;;;;;27.51;44.90;100728.52;1760008;81;20950;-80
2022/08/03 03:27:35;;;;;;;1.90;1.60;;;;;;;27.51;44.89;100729.91;1738285;81;21524;-80
2022/08/03 03:30:03;;;;;;;3.55;1.92;;;;;;;27.52;44.91;100726.53;1760112;81;21037;-80
2022/08/03 03:32:29;;;;;;;2.20;2.00;;;;;;;27.51;44.92;100731.89;1760079;81;21058;-80
2022/08/03 03:34:58;;;;;;;2.08;1.72;;;;;;;27.51;44.92;100738.87;1759689;80;21037;-80
2022/08/03 03:37:25;;;;;;;1.85;1.65;;;;;;;27.51;44.91;100734.69;1760910;80;21626;-80
2022/08/03 03:39:55;;;;;;;2.80;1.98;;;;;;;27.51;44.94;100741.67;1740063;81;21103;-80
2022/08/03 03:42:21;;;;;;;3.45;1.98;;;;;;;27.50;44.71;100749.24;1764197;79;21535;-81
2022/08/03 03:44:48;;;;;;;4.05;2.17;;;;;;;27.50;44.71;100749.24;1761562;80;21475;-80
2022/08/03 03:47:14;;;;;;;2.33;1.92;;;;;;;27.52;44.94;100747.49;1761600;80;20997;-80
2022/08/03 03:49:41;;;;;;;2.17;1.80;;;;;;;27.50;44.94;100750.64;1761507;80;21101;-80
2022/08/03 03:52:08;;;;;;;2.85;2.15;;;;;;;27.51;44.94;100748.66;1761607;80;21107;-80
2022/08/03 03:54:41;;;;;;;2.95;1.75;;;;;;;27.50;44.92;100749.24;1761683;80;21602;-80
2022/08/03 03:57:09;;;;;;;2.20;1.72;;;;;;;27.50;44.95;100754.02;1761439;80;20890;-81
2022/08/03 03:59:39;;;;;;;2.22;1.70;;;;;;;27.51;44.94;100756.45;1761546;80;21056;-80
2022/08/03 04:02:06;;;;;;;;;;;;;;;27.51;44.90;100757.05;1764285;81;21386;-81
2022/08/03 04:12:51;;;;;;;2.12;1.87;;;;;;;27.48;44.93;100761.97;1776521;79;21021;-80
2022/08/03 04:15:22;;;;;;;3.55;2.08;;;;;;;27.48;44.90;100766.98;1772927;80;21075;-81
2022/08/03 04:17:49;;;;;;;2.80;2.00;;;;;;;27.49;44.92;100771.98;1772939;80;20975;-81
2022/08/03 04:20:16;;;;;;;2.35;1.80;;;;;;;27.49;44.93;100774.19;1745200;80;21503;-81
2022/08/03 04:22:42;;;;;;;2.95;1.80;;;;;;;27.49;44.93;100774.78;1772809;80;21946;-80
2022/08/03 04:25:09;;;;;;;3.83;1.98;;;;;;;27.49;44.92;100774.19;1772884;80;21062;-81
2022/08/03 04:27:37;;;;;;;2.77;1.98;;;;;;;27.49;44.90;100776.98;1745332;80;21030;-81
2022/08/03 04:30:05;;;;;;;2.30;2.05;;;;;;;27.49;44.91;100779.78;1745413;80;21014;-81
2022/08/03 04:32:32;;;;;;;2.95;2.22;;;;;;;27.50;44.89;100784.75;1773070;80;21058;-81
2022/08/03 04:34:58;;;;;;;2.83;2.20;;;;;;;27.50;44.88;100781.96;1773134;80;21115;-81
2022/08/03 04:37:47;;;;;;;2.10;1.82;;;;;;;27.51;44.90;100782.19;1772626;80;21016;-81
2022/08/03 04:40:17;;;;;;;2.83;2.02;;;;;;;27.51;44.90;100786.38;1772934;80;21126;-80
2022/08/03 04:42:44;;;;;;;3.57;2.10;;;;;;;27.51;44.84;100790.58;1768764;79;22573;-81
2022/08/03 04:45:12;;;;;;;2.92;1.98;;;;;;;27.51;44.84;100788.59;1772797;80;21037;-80
2022/08/03 04:47:38;;;;;;;3.58;2.10;;;;;;;27.52;44.87;100792.20;1773001;80;21150;-80
2022/08/03 04:50:05;;;;;;;2.50;2.10;;;;;;;27.52;44.87;100787.42;1772759;80;21011;-81
2022/08/03 04:52:32;;;;;;;2.40;1.72;;;;;;;27.52;44.88;100793.60;1773081;80;21046;-81
2022/08/03 04:54:58;;;;;;;3.12;2.30;;;;;;;27.53;44.90;100794.64;1745117;80;21110;-81
2022/08/03 04:57:25;;;;;;;3.90;2.40;;;;;;;27.52;44.91;100784.63;1772537;80;21093;-81
2022/08/03 04:59:53;;;;;;;6.40;2.60;;;;;;;27.53;44.93;100791.03;1772957;80;21139;-81
2022/08/03 05:02:20;;;;;;;4.03;2.15;;;;;;;27.53;44.97;100790.45;1772783;80;21102;-81
2022/08/03 05:04:46;;;;;;;3.80;2.17;;;;;;;27.51;45.01;100787.20;1772520;81;21031;-82
2022/08/03 05:07:13;;;;;;;3.77;1.92;;;;;;;27.50;45.04;100786.16;1769139;80;21542;-81
2022/08/03 05:09:45;;;;;;;2.52;2.00;;;;;;;27.49;45.02;100789.56;1764920;80;21074;-81
2022/08/03 05:12:12;;;;;;;3.80;2.45;;;;;;;27.48;45.08;100789.92;1764617;80;21604;-81
2022/08/03 05:14:38;;;;;;;4.28;2.22;;;;;;;27.46;45.06;100790.23;1764889;80;21384;-81
2022/08/03 05:17:05;;;;;;;4.62;2.30;;;;;;;27.45;45.07;100787.25;1764783;80;21002;-81
2022/08/03 05:19:32;;;;;;;3.55;2.50;;;;;;;27.43;45.08;100789.58;1764685;80;21086;-81
2022/08/03 05:21:58;;;;;;;3.47;2.40;;;;;;;27.42;45.09;100793.55;1764896;80;21043;-81
2022/08/03 05:24:25;;;;;;;4.78;2.85;;;;;;;27.40;45.13;100791.72;1765140;80;21056;-81
2022/08/03 05:26:52;;;;;;;5.35;2.62;;;;;;;27.40;45.14;100793.70;1764708;81;21050;-82
2022/08/03 05:29:24;;;;;;;3.90;2.72;;;;;;;27.38;45.17;100791.84;1764997;80;21043;-81
2022/08/03 05:31:51;;;;;;;3.98;2.80;;;;;;;27.36;45.18;100795.59;1781641;78;21005;-81
2022/08/03 05:34:17;;;;;;;4.28;2.65;;;;;;;27.34;45.20;100803.52;1783041;79;20976;-81
2022/08/03 05:36:44;;;;;;;3.85;2.55;;;;;;;27.34;45.23;100801.54;1782493;78;21574;-82
2022/08/03 05:39:10;;;;;;;3.90;3.02;;;;;;;27.34;45.22;100810.50;1759317;79;21450;-81
2022/08/03 05:41:37;;;;;;;3.85;2.85;;;;;;;27.34;45.21;100808.52;1773541;78;21527;-81
2022/08/03 05:44:03;;;;;;;4.97;3.72;;;;;;;27.33;45.18;100807.52;1805856;79;21056;-81
2022/08/03 05:46:30;;;;;;;3.40;2.62;;;;;;;27.32;45.17;100809.49;1766989;79;21071;-81
2022/08/03 05:48:57;;;;;;;4.70;2.90;;;;;;;27.32;45.14;100805.30;1805265;79;22071;-82
2022/08/03 05:51:23;;;;;;;5.47;3.20;;;;;;;27.30;45.15;100804.84;1792562;79;21314;-82
2022/08/03 05:53:50;;;;;;;3.85;2.72;;;;;;;27.30;45.15;100809.03;1759112;80;21012;-82
2022/08/03 05:56:16;;;;;;;3.92;2.52;;;;;;;27.30;45.15;100813.22;1745058;82;21620;-82
2022/08/03 05:58:46;;;;;;;4.00;3.22;;;;;;;27.28;45.13;100813.57;1745200;82;21499;-82
2022/08/03 06:01:12;;;;;;;6.22;3.05;;;;;;;27.27;45.13;100812.55;1745119;81;21404;-82
2022/08/03 06:03:39;;;;;;;5.53;2.50;;;;;;;27.25;45.15;100817.09;1771033;79;21038;-82
2022/08/03 06:06:11;;;;;;;3.90;2.70;;;;;;;27.25;44.83;100819.08;1764348;79;21625;-82
2022/08/03 06:08:39;;;;;;;4.55;2.75;;;;;;;27.21;44.78;100817.60;1723007;81;20968;-83
2022/08/03 06:11:05;;;;;;;5.35;2.80;;;;;;;27.20;44.73;100821.56;1733476;82;21107;-82
2022/08/03 06:13:32;;;;;;;5.03;3.08;;;;;;;27.20;44.73;100816.59;1738609;82;21162;-82
2022/08/03 06:15:58;;;;;;;2.83;2.20;;;;;;;27.21;44.69;100814.81;1755701;80;21601;-81
2022/08/03 06:18:24;;;;;;;4.10;2.50;;;;;;;27.20;44.56;100815.98;1744784;80;21037;-81
2022/08/03 06:20:52;;;;;;;5.60;2.37;;;;;;;27.21;44.48;100819.00;1764883;80;21478;-82
2022/08/03 06:23:18;;;;;;;5.25;2.35;;;;;;;27.19;44.32;100812.98;1764613;80;21323;-81
2022/08/03 06:25:45;;;;;;;6.25;2.70;;;;;;;27.19;44.23;100812.16;1765007;80;21096;-81
2022/08/03 06:28:12;;;;;;;4.08;2.52;;;;;;;27.18;44.12;100823.92;1765195;80;21029;-80
2022/08/03 06:30:40;;;;;;;2.90;2.42;;;;;;;27.18;44.00;100820.31;1765426;80;21471;-81
2022/08/03 06:33:06;;;;;;;4.25;2.25;;;;;;;27.18;43.86;100817.52;1764714;80;22537;-81
2022/08/03 06:35:33;;;;;;;6.97;1.87;;;;;;;27.16;43.78;100819.27;1765385;80;21092;-82
2022/08/03 06:37:59;;;;;;;6.95;2.00;;;;;;;27.17;43.48;100820.08;1765461;80;21409;-82
2022/08/03 06:40:30;;;;;;;7.53;2.50;;;;;;;27.17;43.12;100824.27;1749981;80;21519;-82
2022/08/03 06:42:56;;;;;;;;;;;;;;;27.15;42.90;100828.84;1751970;80;21597;-82
2022/08/03 06:45:23;;;;;;;3.55;2.27;;;;;;;27.14;42.73;100825.82;1744339;79;20166;-82
2022/08/03 06:48:01;;;;;;;4.85;2.30;;;;;;;27.13;42.86;100827.56;1741023;80;21104;-82
2022/08/03 06:50:28;;;;;;;9.23;2.25;;;;;;;27.13;42.81;100820.58;1739801;82;21247;-81
2022/08/03 06:52:55;;;;;;;4.60;2.35;;;;;;;27.13;42.67;100823.37;1739372;82;21744;-81
2022/08/03 06:55:21;;;;;;;4.42;2.42;;;;;;;27.12;42.57;100824.55;1739665;81;21430;-81
2022/08/03 06:57:48;;;;;;;5.83;2.30;;;;;;;27.12;42.62;100824.55;1744914;80;21549;-81
2022/08/03 07:00:15;;;;;;;7.08;2.40;;;;;;;27.10;42.59;100821.31;1749890;82;21054;-81
2022/08/03 07:02:41;;;;;;;3.17;1.80;;;;;;;27.10;42.60;100815.15;1760900;79;21028;-81
2022/08/03 07:05:08;;;;;;;3.15;2.20;;;;;;;27.11;42.51;100816.78;1767428;80;22125;-81
2022/08/03 07:07:35;;;;;;;4.15;2.50;;;;;;;27.11;42.54;100819.57;1769029;79;21514;-80
2022/08/03 07:10:02;;;;;;;3.40;2.50;;;;;;;27.12;42.50;100819.77;1761029;81;21040;-81
2022/08/03 07:12:29;;;;;;;2.80;2.25;;;;;;;27.14;42.41;100827.22;1743374;80;21068;-80
2022/08/03 07:14:55;;;;;;;6.85;2.02;;;;;;;27.15;42.36;100816.86;1750846;81;21855;-81
2022/08/03 07:17:22;;;;;;;4.97;2.20;;;;;;;27.16;42.21;100824.86;1760750;81;21021;-81
2022/08/03 07:19:48;;;;;;;3.60;2.08;;;;;;;27.15;42.11;100819.06;1756773;80;21044;-82
2022/08/03 07:22:15;;;;;;;2.75;2.00;;;;;;;27.17;42.10;100814.50;1758100;80;21033;-81
2022/08/03 07:24:41;;;;;;;4.17;2.27;;;;;;;27.17;42.13;100816.70;1752109;81;21084;-81
2022/08/03 07:27:08;;;;;;;2.45;1.80;;;;;;;27.17;42.03;100814.50;1778335;80;21082;-81
2022/08/03 07:29:40;;;;;;;3.35;2.05;;;;;;;27.17;42.13;100815.31;1759893;80;21076;-81
2022/08/03 07:32:07;;;;;;;4.80;2.33;;;;;;;27.18;42.07;100811.35;1760425;81;21020;-80
2022/08/03 07:34:33;;;;;;;3.42;1.82;;;;;;;27.19;41.94;100817.17;1756436;81;21115;-80
2022/08/03 07:37:00;;;;;;;3.08;2.42;;;;;;;27.18;41.81;100811.94;1759560;80;21014;-80
2022/08/03 07:39:26;;;;;;;4.20;2.10;;;;;;;27.18;41.83;100814.14;1759810;81;21142;-81
2022/08/03 07:41:53;;;;;;;2.60;1.98;;;;;;;27.21;41.89;100814.81;1754248;80;21634;-80
2022/08/03 07:44:19;;;;;;;3.67;2.05;;;;;;;27.22;41.76;100816.44;1756425;81;21368;-80
2022/08/03 07:46:46;;;;;;;2.60;1.92;;;;;;;27.23;41.67;100817.25;1760418;80;21523;-81
2022/08/03 07:49:12;;;;;;;2.60;1.80;;;;;;;27.24;41.69;100814.08;1703326;83;21079;-81
2022/08/03 07:51:39;;;;;;;2.85;1.90;;;;;;;27.25;41.59;100811.52;1757002;81;21835;-81
2022/08/03 07:54:12;;;;;;;2.58;1.95;;;;;;;27.27;41.36;100806.97;1771517;80;21111;-81
2022/08/03 07:56:38;;;;;;;2.65;2.10;;;;;;;27.28;41.28;100811.98;1771627;81;20997;-81
2022/08/03 07:59:05;;;;;;;3.15;1.95;;;;;;;27.28;41.15;100816.16;1761859;80;21601;-81
2022/08/03 08:01:34;;;;;;;3.67;1.87;;;;;;;27.29;41.30;100815.78;1760614;80;21606;-82
2022/08/03 08:03:59;;;;;;;5.60;2.00;;;;;;;27.28;41.27;100816.98;1756568;80;21130;-81
2022/08/03 08:06:26;;;;;;;2.62;1.80;;;;;;;27.29;41.13;100815.78;1776959;79;21019;-81
2022/08/03 08:08:53;;;;;;;2.25;1.77;;;;;;;27.30;41.24;100813.80;1771493;80;21032;-81
2022/08/03 08:11:21;;;;;;;4.65;1.60;;;;;;;27.32;41.31;100820.66;1776853;79;21576;-82
2022/08/03 08:13:47;;;;;;;3.47;1.80;;;;;;;27.36;41.38;100820.74;1782985;78;21044;-81
2022/08/03 08:16:14;;;;;;;1.72;1.60;;;;;;;27.38;41.52;100817.80;1765038;79;21110;-82
2022/08/03 08:18:40;;;;;;;2.47;1.95;;;;;;;27.40;41.72;100823.03;1768296;80;21070;-81
2022/08/03 08:21:07;;;;;;;2.80;1.72;;;;;;;27.41;41.84;100816.28;1768378;80;21067;-81
2022/08/03 08:23:33;;;;;;;3.87;2.00;;;;;;;27.43;41.76;100820.91;1765566;80;21555;-81
2022/08/03 08:26:01;;;;;;;5.65;1.80;;;;;;;27.44;41.85;100815.55;1781468;78;21000;-81
2022/08/03 08:28:28;;;;;;;3.35;1.90;;;;;;;27.46;41.74;100820.16;1740740;81;21605;-81
2022/08/03 08:30:55;;;;;;;4.60;2.08;;;;;;;27.46;41.71;100811.78;1762443;81;21023;-81
2022/08/03 08:33:21;;;;;;;2.10;1.90;;;;;;;27.47;41.82;100810.06;1762873;80;21500;-81
2022/08/03 08:35:47;;;;;;;4.35;1.90;;;;;;;27.48;41.57;100806.69;1739531;79;21827;-81
2022/08/03 08:38:14;;;;;;;4.30;1.85;;;;;;;27.50;41.47;100804.31;1779929;78;21029;-81
2022/08/03 08:40:41;;;;;;;2.83;1.90;;;;;;;27.50;41.46;100800.13;1781335;79;21252;-82
2022/08/03 08:43:07;;;;;;;3.87;1.87;;;;;;;27.50;41.33;100809.33;1777166;79;21011;-82
2022/08/03 08:45:34;;;;;;;1.92;1.70;;;;;;;27.52;41.49;100801.98;1763818;79;21032;-81
2022/08/03 08:48:01;;;;;;;3.60;1.80;;;;;;;27.52;41.45;100806.17;1764268;79;21031;-82
2022/08/03 08:50:28;;;;;;;3.70;1.70;;;;;;;27.53;41.58;100800.81;1775470;79;21111;-81
2022/08/03 08:52:54;;;;;;;3.62;1.90;;;;;;;27.53;41.70;100800.81;1770176;79;21415;-82
2022/08/03 08:55:27;;;;;;;3.20;1.70;;;;;;;27.54;41.84;100806.63;1770475;79;21075;-82
2022/08/03 08:58:04;;;;;;;2.98;1.77;;;;;;;27.54;41.96;100808.81;1741900;79;21018;-82
2022/08/03 09:00:30;;;;;;;2.08;1.50;;;;;;;27.56;42.06;100809.86;1775490;79;21040;-81
2022/08/03 09:02:57;;;;;;;2.62;1.67;;;;;;;27.56;42.14;100809.86;1753694;79;21128;-81
2022/08/03 09:05:24;;;;;;;2.15;1.70;;;;;;;27.57;42.19;100804.50;1770870;79;21122;-82
2022/08/03 09:07:51;;;;;;;5.83;2.30;;;;;;;27.57;42.27;100798.33;1772875;79;21072;-81
2022/08/03 09:10:18;;;;;;;4.42;1.67;;;;;;;27.59;41.96;100799.34;1763362;79;21028;-82
2022/08/03 09:12:47;;;;;;;2.58;1.72;;;;;;;27.58;41.90;100800.53;1775315;79;22163;-81
2022/08/03 09:15:30;;;;;;;3.40;2.10;;;;;;;27.58;41.96;100792.16;1787942;79;21027;-81
2022/08/03 09:18:01;;;;;;;2.20;1.85;;;;;;;27.58;42.08;100796.34;1771374;79;21301;-81
2022/08/03 09:20:30;;;;;;;3.85;1.77;;;;;;;27.60;42.17;100793.98;1773964;80;21013;-81
2022/08/03 09:22:58;;;;;;;2.90;1.95;;;;;;;27.60;42.06;100796.19;1774189;79;21041;-81
2022/08/03 09:25:33;;;;;;;2.00;1.77;;;;;;;27.59;42.13;100781.98;1773326;80;21040;-80
2022/08/03 09:28:12;;;;;;;2.67;1.82;;;;;;;27.59;42.06;100793.16;1766730;79;21025;-80
2022/08/03 09:30:42;;;;;;;2.90;1.80;;;;;;;27.58;42.08;100791.53;1757458;80;21151;-80
2022/08/03 09:33:16;;;;;;;2.15;1.72;;;;;;;27.59;42.20;100797.36;1759052;80;21085;-80
2022/08/03 09:35:49;;;;;;;2.15;1.80;;;;;;;27.60;42.31;100800.38;1758500;80;21677;-80
2022/08/03 09:38:23;;;;;;;4.42;2.05;;;;;;;27.60;42.32;100796.77;1758201;80;21073;-80
2022/08/03 09:40:49;;;;;;;4.22;1.90;;;;;;;27.59;41.98;100777.80;1743718;82;21004;-80
2022/08/03 09:43:16;;;;;;;3.10;2.00;;;;;;;27.61;41.53;100783.02;1744330;80;21920;-80
2022/08/03 09:45:43;;;;;;;3.30;1.92;;;;;;;27.61;41.29;100785.23;1756710;79;21051;-80
2022/08/03 09:48:28;;;;;;;2.20;1.77;;;;;;;27.62;41.46;100781.27;1774365;79;21041;-79
2022/08/03 09:50:59;;;;;;;4.60;1.98;;;;;;;27.62;41.68;100776.27;1766457;79;21062;-81
2022/08/03 09:53:25;;;;;;;2.20;1.75;;;;;;;27.62;41.47;100772.08;1789501;79;21603;-80
2022/08/03 09:56:00;;;;;;;2.50;1.62;;;;;;;27.62;41.46;100772.08;1769258;79;21895;-80
2022/08/03 09:58:28;;;;;;;1.95;1.75;;;;;;;27.62;41.62;100774.29;1773129;79;21045;-81
2022/08/03 10:00:59;;;;;;;2.62;1.85;;;;;;;27.63;41.78;100771.69;1771258;79;21141;-81
2022/08/03 10:03:28;;;;;;;3.62;2.02;;;;;;;27.63;41.81;100768.08;1791294;79;21084;-81
2022/08/03 10:05:56;;;;;;;2.20;1.55;;;;;;;27.62;41.90;100765.91;1773620;79;21542;-81
2022/08/03 10:08:24;;;;;;;3.58;2.20;;;;;;;27.63;42.05;100768.89;1762333;79;21601;-80
2022/08/03 10:10:56;;;;;;;3.87;2.17;;;;;;;27.64;42.02;100772.50;1764223;79;21374;-81
2022/08/03 10:13:26;;;;;;;2.70;2.20;;;;;;;27.64;41.74;100766.33;1782710;79;21112;-80
2022/08/03 10:15:51;;;;;;;2.22;1.90;;;;;;;27.66;41.54;100764.58;1780225;79;21706;-81
2022/08/03 10:18:17;;;;;;;3.58;1.70;;;;;;;27.66;41.59;100757.59;1776659;79;21092;-81
2022/08/03 10:20:57;;;;;;;2.65;2.10;;;;;;;27.67;41.44;100761.39;1773797;79;21100;-80
2022/08/03 10:23:23;;;;;;;3.45;2.05;;;;;;;27.68;41.22;100758.02;1757592;79;21448;-80
2022/08/03 10:25:54;;;;;;;2.22;2.02;;;;;;;27.68;41.15;100758.02;1763347;79;21027;-80
2022/08/03 10:28:21;;;;;;;2.70;1.95;;;;;;;27.70;41.06;100752.88;1775350;79;21570;-81
2022/08/03 10:30:50;;;;;;;3.12;2.20;;;;;;;27.71;41.05;100754.47;1772682;79;21880;-81
2022/08/03 10:33:26;;;;;;;2.42;1.72;;;;;;;27.73;40.95;100745.73;1746399;80;21070;-80
2022/08/03 10:35:57;;;;;;;2.50;1.90;;;;;;;27.73;41.12;100743.75;1771362;79;21036;-81
2022/08/03 10:38:31;;;;;;;2.30;1.90;;;;;;;27.73;41.28;100747.94;1776159;79;21087;-80
2022/08/03 10:40:57;;;;;;;6.12;1.90;;;;;;;27.73;41.45;100740.14;1776345;79;21070;-81
2022/08/03 10:43:35;;;;;;;4.03;2.08;;;;;;;27.72;41.43;100740.73;1775748;79;21034;-81
2022/08/03 10:46:03;;;;;;;4.35;1.72;;;;;;;27.73;41.48;100731.17;1763960;79;21342;-81
2022/08/03 10:48:29;;;;;;;2.72;1.92;;;;;;;27.73;41.55;100739.56;1787094;79;21108;-80
2022/08/03 10:50:56;;;;;;;2.08;1.80;;;;;;;27.73;41.49;100735.36;1777208;79;21054;-80
2022/08/03 10:53:42;;;;;;;3.27;1.70;;;;;;;27.74;41.52;100741.19;1774499;79;21075;-81
2022/08/03 10:59:50;;;;;;;3.50;1.80;;;;;;;27.75;41.52;100737.80;1766937;79;21486;-81
2022/08/03 11:02:17;;;;;;;3.62;1.90;;;;;;;27.74;41.59;100736.98;1743910;81;20928;-80
2022/08/03 11:04:46;;;;;;;3.05;1.90;;;;;;;27.73;41.48;100727.56;1743336;81;21557;-82
2022/08/03 11:07:24;;;;;;;2.83;1.72;;;;;;;27.72;41.43;100725.35;1743796;81;21028;-81
2022/08/03 11:09:54;;;;;;;2.55;1.92;;;;;;;27.73;41.39;100731.17;1788720;78;21512;-81
2022/08/03 11:12:30;;;;;;;2.75;2.00;;;;;;;27.73;41.56;100726.98;1773250;79;21189;-81
2022/08/03 11:15:00;;;;;;;2.17;1.90;;;;;;;27.73;41.52;100720.58;1774918;79;21651;-81
2022/08/03 11:17:26;;;;;;;4.60;2.00;;;;;;;27.73;41.43;100722.78;1775094;79;20976;-81
2022/08/03 11:19:53;;;;;;;2.62;1.80;;;;;;;27.73;41.54;100718.59;1773241;79;21008;-80
2022/08/03 11:22:20;;;;;;;2.20;1.92;;;;;;;27.73;41.63;100710.20;1773770;80;21013;-80
2022/08/03 11:24:56;;;;;;;2.50;1.87;;;;;;;27.73;41.51;100701.81;1721445;79;22041;-80
2022/08/03 11:27:36;;;;;;;3.27;2.20;;;;;;;27.75;41.22;100710.66;1769218;80;21460;-81
2022/08/03 11:30:27;;;;;;;2.10;1.85;;;;;;;27.75;40.85;100695.28;1775201;79;28145;-81
2022/08/03 11:32:57;;;;;;;2.95;2.10;;;;;;;27.77;40.64;100697.69;1775239;79;21061;-81
2022/08/03 11:35:30;;;;;;;3.27;2.05;;;;;;;27.76;40.80;100694.67;1753160;79;21091;-80
2022/08/03 11:38:03;;;;;;;2.60;1.80;;;;;;;27.76;41.09;100689.89;1774355;79;22064;-80
2022/08/03 11:40:48;;;;;;;2.08;1.70;;;;;;;27.77;41.30;100687.32;1774805;79;21054;-81
2022/08/03 11:43:40;;;;;;;3.02;1.85;;;;;;;27.76;41.49;100688.49;1764831;79;21013;-81
2022/08/03 11:46:07;;;;;;;2.98;2.50;;;;;;;27.77;41.65;100692.91;1764897;79;21079;-81
2022/08/03 11:48:38;;;;;;;2.95;2.20;;;;;;;27.77;41.42;100682.31;1770093;79;21076;-81